Time;durP1;ratioP1;P1;durP2;ratioP2;P2;SDS_P1;SDS_P2;PMS_P1;PMS_P2;Temp;Humidity;BMP_temperature;BMP_pressure;BME280_temperature;BME280_humidity;BME280_pressure;Samples;Min_cycle;Max_cycle;Signal;HPM_P1;HPM_P2
2022/07/19 00:01:29;;;;;;;3.85;2.25;;;;;;;15.55;43.74;101938.72;4979754;28;20046;-78
2022/07/19 00:03:59;;;;;;;3.25;1.90;;;;;;;15.62;43.65;101946.31;4968056;28;20566;-78
2022/07/19 00:06:24;;;;;;;5.13;2.20;;;;;;;15.72;43.76;101939.75;4971600;28;20044;-77
2022/07/19 00:08:50;;;;;;;4.97;1.67;;;;;;;15.79;43.69;101955.22;4961116;28;20038;-76
2022/07/19 00:11:15;;;;;;;4.43;2.33;;;;;;;15.73;43.59;101938.84;4974572;28;20070;-77
2022/07/19 00:13:41;;;;;;;3.33;1.60;;;;;;;15.72;43.75;101945.84;4969762;28;20054;-75
2022/07/19 00:16:06;;;;;;;4.53;2.15;;;;;;;15.71;43.73;101943.31;4962240;28;20643;-79
2022/07/19 00:18:31;;;;;;;4.72;1.90;;;;;;;15.69;43.70;101945.16;4986648;28;20078;-76
2022/07/19 00:20:58;;;;;;;3.53;1.88;;;;;;;15.60;44.11;101935.88;4984632;28;20057;-78
2022/07/19 00:23:23;;;;;;;4.10;2.05;;;;;;;15.51;44.10;101937.13;4973260;28;20042;-77
2022/07/19 00:25:49;;;;;;;4.82;1.75;;;;;;;15.50;44.13;101939.84;4976957;28;20093;-77
2022/07/19 00:28:14;;;;;;;5.63;2.30;;;;;;;15.40;44.30;101933.28;4971201;28;20440;-78
2022/07/19 00:30:40;;;;;;;3.65;1.98;;;;;;;15.36;44.42;101932.53;4980588;28;20048;-77
2022/07/19 00:33:08;;;;;;;3.85;2.20;;;;;;;15.46;44.37;101936.50;4971273;28;20113;-78
2022/07/19 00:35:35;;;;;;;4.80;2.45;;;;;;;15.46;44.21;101939.13;4963344;28;20061;-79
2022/07/19 00:38:09;;;;;;;3.67;2.28;;;;;;;15.43;44.21;101939.25;4975694;28;20050;-78
2022/07/19 00:40:36;;;;;;;3.60;2.53;;;;;;;15.30;44.48;101933.66;4975552;28;20045;-77
2022/07/19 00:43:02;;;;;;;4.88;2.17;;;;;;;15.30;44.53;101930.16;4983761;28;20043;-76
2022/07/19 00:45:27;;;;;;;3.08;1.75;;;;;;;15.32;44.71;101933.59;4972589;28;20408;-77
2022/07/19 00:47:53;;;;;;;4.90;2.67;;;;;;;15.28;44.80;101935.53;4972217;28;20050;-78
2022/07/19 00:50:20;;;;;;;4.90;2.60;;;;;;;15.27;44.64;101931.16;4974718;28;20472;-78
2022/07/19 00:52:49;;;;;;;4.63;2.45;;;;;;;15.08;45.19;101938.97;4975355;28;20047;-76
2022/07/19 00:55:18;;;;;;;4.15;2.55;;;;;;;15.02;45.35;101941.84;4956562;28;20086;-76
2022/07/19 00:57:45;;;;;;;4.03;1.88;;;;;;;15.02;45.56;101939.22;4973413;28;20054;-78
2022/07/19 01:00:12;;;;;;;5.47;3.42;;;;;;;14.88;45.97;101929.28;4972789;28;20027;-77
2022/07/19 01:02:38;;;;;;;10.52;4.00;;;;;;;14.72;46.10;101922.91;4970275;28;20811;-78
2022/07/19 01:05:05;;;;;;;4.85;3.10;;;;;;;14.65;46.39;101924.94;4955424;28;20038;-78
2022/07/19 01:07:31;;;;;;;6.50;3.67;;;;;;;14.68;46.57;101929.22;4969030;28;20424;-77
2022/07/19 01:09:57;;;;;;;3.88;2.95;;;;;;;;;;4956048;28;20133;-79
2022/07/19 01:12:23;;;;;;;3.97;2.88;;;;;;;14.90;45.83;101934.44;4958649;28;20508;-77
2022/07/19 01:14:49;;;;;;;6.53;2.92;;;;;;;14.91;45.84;101930.91;4981954;28;20113;-77
2022/07/19 01:17:15;;;;;;;7.20;3.75;;;;;;;14.81;46.17;101938.31;4963500;28;20055;-77
2022/07/19 01:19:44;;;;;;;7.93;3.47;;;;;;;14.66;46.54;101936.34;4970939;28;20033;-77
2022/07/19 01:22:10;;;;;;;6.22;2.63;;;;;;;14.59;46.77;101930.47;4971934;28;21354;-76
2022/07/19 01:24:35;;;;;;;5.28;3.00;;;;;;;14.53;47.11;101930.69;4960138;28;20031;-77
2022/07/19 01:27:01;;;;;;;5.18;2.95;;;;;;;14.66;46.61;101926.66;4972534;28;20053;-78
2022/07/19 01:29:26;;;;;;;6.45;3.08;;;;;;;14.76;46.72;101938.50;4961249;28;20053;-78
2022/07/19 01:31:52;;;;;;;4.65;3.00;;;;;;;14.86;46.27;101940.78;4959644;28;20128;-78
2022/07/19 01:34:17;;;;;;;5.18;2.80;;;;;;;14.88;46.50;101944.19;4974643;28;20912;-76
2022/07/19 01:36:43;;;;;;;6.20;3.15;;;;;;;14.82;46.65;101947.09;4971590;28;20958;-78
2022/07/19 01:39:08;;;;;;;4.25;2.95;;;;;;;;;;4975738;28;20031;-76
2022/07/19 01:41:34;;;;;;;2.92;2.45;;;;;;;14.74;46.92;101945.59;4959362;28;20325;-78
2022/07/19 01:43:59;;;;;;;5.45;2.78;;;;;;;14.72;46.90;101944.84;4972504;28;20092;-77
2022/07/19 01:46:25;;;;;;;6.20;2.97;;;;;;;14.74;46.82;101940.34;4977520;28;20042;-76
2022/07/19 01:48:50;;;;;;;4.90;3.45;;;;;;;14.63;46.96;101939.91;4990603;28;20053;-76
2022/07/19 01:51:16;;;;;;;7.22;3.17;;;;;;;14.51;47.35;101937.81;4981730;28;20038;-77
2022/07/19 01:53:41;;;;;;;6.72;3.55;;;;;;;14.38;47.73;101933.91;4977612;28;20038;-77
2022/07/19 01:56:07;;;;;;;5.03;3.30;;;;;;;14.25;48.40;101931.75;4976871;28;20034;-77
2022/07/19 01:58:33;;;;;;;5.63;3.40;;;;;;;14.32;48.43;101932.34;4953241;28;20080;-78
2022/07/19 02:01:01;;;;;;;4.35;3.53;;;;;;;14.38;48.04;101926.00;4960791;28;20085;-77
2022/07/19 02:03:26;;;;;;;5.75;3.08;;;;;;;14.52;48.05;101931.59;4970609;28;20608;-80
2022/07/19 02:05:52;;;;;;;4.75;2.65;;;;;;;14.58;47.72;101928.72;4977818;28;20117;-77
2022/07/19 02:08:17;;;;;;;4.18;2.60;;;;;;;14.56;47.73;101933.19;4954655;28;20528;-78
2022/07/19 02:10:43;;;;;;;4.45;2.75;;;;;;;14.56;47.83;101926.16;4978390;28;20039;-78
2022/07/19 02:13:08;;;;;;;5.57;3.10;;;;;;;14.55;47.95;101926.25;4958311;28;20086;-79
2022/07/19 02:15:34;;;;;;;4.82;2.78;;;;;;;14.64;47.80;101928.50;4975531;28;20062;-78
2022/07/19 02:18:00;;;;;;;5.68;2.70;;;;;;;14.60;47.54;101932.16;4973484;28;20073;-78
2022/07/19 02:20:26;;;;;;;3.97;2.60;;;;;;;14.55;47.88;101931.50;4973901;28;20038;-77
2022/07/19 02:22:51;;;;;;;4.78;3.58;;;;;;;14.46;47.92;101923.97;4973322;28;20417;-77
2022/07/19 02:25:18;;;;;;;7.07;4.00;;;;;;;14.34;48.45;101925.28;4972246;28;20037;-78
2022/07/19 02:27:43;;;;;;;4.55;2.83;;;;;;;14.35;48.49;101927.84;4960735;28;20137;-79
2022/07/19 02:30:11;;;;;;;4.38;2.88;;;;;;;14.24;48.69;101922.16;4957947;28;20109;-78
2022/07/19 02:32:37;;;;;;;4.70;3.17;;;;;;;14.10;49.33;101930.56;4970355;28;20034;-78
2022/07/19 02:35:07;;;;;;;4.97;3.28;;;;;;;14.01;49.32;101928.31;4967006;28;20030;-77
2022/07/19 02:37:32;;;;;;;4.15;3.40;;;;;;;13.94;49.63;101932.06;4953895;28;20055;-77
2022/07/19 02:39:58;;;;;;;5.22;3.20;;;;;;;13.91;49.95;101929.56;4971397;28;20037;-78
2022/07/19 02:42:23;;;;;;;4.13;2.50;;;;;;;14.07;49.29;101930.69;4976063;28;20477;-77
2022/07/19 02:44:49;;;;;;;3.35;2.72;;;;;;;14.14;49.20;101934.81;4973476;28;20477;-77
2022/07/19 02:47:15;;;;;;;5.20;2.80;;;;;;;14.17;49.12;101932.97;4976760;28;20080;-77
2022/07/19 02:49:40;;;;;;;5.63;3.15;;;;;;;14.14;49.23;101932.19;4975059;28;20509;-79
2022/07/19 02:52:06;;;;;;;4.30;2.72;;;;;;;14.18;49.20;101930.28;4972717;28;20292;-78
2022/07/19 02:54:32;;;;;;;5.03;3.10;;;;;;;14.20;49.23;101928.44;4972078;28;20069;-78
2022/07/19 02:56:57;;;;;;;4.65;2.75;;;;;;;14.22;48.99;101931.03;4959548;28;20119;-78
2022/07/19 02:59:23;;;;;;;4.88;3.08;;;;;;;14.12;49.20;101934.00;4973587;28;20038;-77
2022/07/19 03:01:49;;;;;;;4.93;3.80;;;;;;;14.00;49.12;101928.34;4980362;28;20031;-78
2022/07/19 03:04:14;;;;;;;5.97;3.47;;;;;;;13.88;49.86;101927.91;4979805;28;20524;-78
2022/07/19 03:06:39;;;;;;;5.63;3.05;;;;;;;13.89;49.92;101924.34;4975765;28;20065;-78
2022/07/19 03:09:05;;;;;;;6.28;3.28;;;;;;;14.10;49.36;101924.47;4964436;28;20559;-77
2022/07/19 03:11:30;;;;;;;7.40;3.67;;;;;;;14.15;49.38;101919.88;4959878;28;20035;-78
2022/07/19 03:13:56;;;;;;;4.50;2.80;;;;;;;14.14;49.27;101916.41;4976939;28;20043;-78
2022/07/19 03:16:21;;;;;;;5.00;3.55;;;;;;;14.16;49.62;101916.31;4981587;28;20034;-78
2022/07/19 03:18:47;;;;;;;7.97;4.18;;;;;;;14.03;49.70;101920.34;4972745;28;20050;-79
2022/07/19 03:21:12;;;;;;;4.55;3.75;;;;;;;14.05;49.78;101918.50;4964279;28;20089;-79
2022/07/19 03:23:38;;;;;;;4.85;2.90;;;;;;;14.08;49.61;101913.16;4970156;28;20047;-78
2022/07/19 03:26:05;;;;;;;5.68;3.97;;;;;;;14.07;49.75;101916.69;4978000;28;20592;-78
2022/07/19 03:28:30;;;;;;;7.50;3.03;;;;;;;14.04;49.86;101916.81;4965733;28;20042;-78
2022/07/19 03:30:56;;;;;;;4.28;3.42;;;;;;;14.11;49.85;101907.78;4979014;28;20089;-78
2022/07/19 03:33:21;;;;;;;5.35;3.88;;;;;;;14.07;49.80;101901.75;4981177;28;20421;-79
2022/07/19 03:35:47;;;;;;;6.65;3.20;;;;;;;14.03;50.20;101909.81;4981027;28;20407;-79
2022/07/19 03:38:15;;;;;;;8.48;4.50;;;;;;;13.99;50.37;101905.63;4978006;28;20404;-78
2022/07/19 03:40:41;;;;;;;7.07;4.75;;;;;;;13.98;50.56;101906.53;4977480;28;20431;-79
2022/07/19 03:43:06;;;;;;;7.03;4.80;;;;;;;14.01;50.39;101898.50;4971744;28;21023;-78
2022/07/19 03:45:33;;;;;;;6.20;4.10;;;;;;;14.08;50.46;101907.91;4963956;28;20113;-80
2022/07/19 03:48:00;;;;;;;6.97;4.47;;;;;;;14.15;49.88;101904.97;4974833;28;20061;-78
2022/07/19 03:50:26;;;;;;;6.10;3.72;;;;;;;14.31;50.04;101905.22;4957846;28;20523;-78
2022/07/19 03:52:51;;;;;;;5.00;3.47;;;;;;;14.52;49.58;101910.56;4980718;28;20041;-78
2022/07/19 03:55:17;;;;;;;7.82;3.40;;;;;;;14.57;49.26;101913.88;4959377;28;20039;-78
2022/07/19 03:57:42;;;;;;;4.72;3.58;;;;;;;14.70;48.94;101914.22;4960201;28;20062;-79
2022/07/19 04:00:08;;;;;;;7.35;4.15;;;;;;;14.87;48.75;101921.44;4977350;28;20058;-79
2022/07/19 04:02:40;;;;;;;5.05;3.90;;;;;;;14.87;48.64;101913.53;4962314;28;20052;-77
2022/07/19 04:05:07;;;;;;;5.65;3.05;;;;;;;14.88;48.92;101920.50;4960147;28;20030;-77
2022/07/19 04:07:33;;;;;;;5.55;3.72;;;;;;;14.96;48.82;101921.03;4981853;28;20997;-77
2022/07/19 04:09:59;;;;;;;5.20;2.92;;;;;;;14.99;48.90;101920.91;4981204;28;20042;-78
2022/07/19 04:12:24;;;;;;;7.13;3.92;;;;;;;15.00;48.38;101920.00;4965048;28;20035;-78
2022/07/19 04:14:50;;;;;;;9.25;4.35;;;;;;;14.92;48.52;101915.03;4962758;28;20041;-78
2022/07/19 04:17:16;;;;;;;5.75;4.25;;;;;;;14.86;48.89;101919.72;4975977;28;20050;-78
2022/07/19 04:19:41;;;;;;;6.03;3.30;;;;;;;14.99;48.92;101918.25;4974325;28;20660;-77
2022/07/19 04:22:06;;;;;;;6.00;3.70;;;;;;;15.09;48.62;101916.13;4963254;28;20077;-78
2022/07/19 04:24:32;;;;;;;8.30;3.40;;;;;;;15.25;48.49;101924.25;4973271;28;20125;-78
2022/07/19 04:26:57;;;;;;;8.45;3.88;;;;;;;15.35;48.10;101926.41;4974623;28;20054;-79
2022/07/19 04:29:23;;;;;;;8.88;4.60;;;;;;;15.32;48.00;101923.06;4975834;28;20476;-80
2022/07/19 04:31:48;;;;;;;7.28;4.28;;;;;;;15.34;48.22;101929.97;4956324;28;20869;-80
2022/07/19 04:34:14;;;;;;;6.65;4.30;;;;;;;15.47;47.85;101930.28;4964688;28;20034;-78
2022/07/19 04:36:39;;;;;;;8.18;4.97;;;;;;;15.56;47.95;101926.41;4982102;28;20502;-79
2022/07/19 04:39:05;;;;;;;6.95;5.00;;;;;;;15.68;47.94;101927.63;4959769;28;20042;-82
2022/07/19 04:41:30;;;;;;;8.32;4.78;;;;;;;15.86;47.45;101932.03;4975117;28;20120;-78
2022/07/19 04:43:56;;;;;;;8.60;4.05;;;;;;;16.04;47.19;101929.53;4964880;28;20101;-77
2022/07/19 04:46:22;;;;;;;9.15;4.20;;;;;;;16.15;46.85;101936.03;4982527;28;20180;-79
2022/07/19 04:48:47;;;;;;;11.38;5.05;;;;;;;16.24;46.38;101921.53;4960695;28;20090;-80
2022/07/19 04:51:13;;;;;;;13.45;5.00;;;;;;;16.36;45.97;101920.09;4983281;28;20145;-79
2022/07/19 04:53:38;;;;;;;9.73;4.97;;;;;;;16.40;46.07;101919.88;4980638;28;20070;-78
2022/07/19 04:56:04;;;;;;;11.52;5.30;;;;;;;16.48;46.07;101918.66;4967064;28;20037;-80
2022/07/19 04:58:31;;;;;;;8.50;5.22;;;;;;;16.58;45.51;101919.94;4995138;28;20042;-77
2022/07/19 05:00:56;;;;;;;9.57;4.85;;;;;;;16.76;45.54;101916.41;4984779;28;20053;-78
2022/07/19 05:03:22;;;;;;;10.07;5.45;;;;;;;17.29;44.57;101924.31;4985741;28;20559;-80
2022/07/19 05:05:48;;;;;;;9.07;4.80;;;;;;;18.49;42.04;101916.03;4975033;28;20070;-79
2022/07/19 05:08:14;;;;;;;9.93;4.75;;;;;;;19.74;39.93;101921.91;4973012;28;20100;-79
2022/07/19 05:10:39;;;;;;;10.55;5.85;;;;;;;20.76;36.53;101913.59;4981488;28;20063;-80
2022/07/19 05:13:05;;;;;;;11.20;5.10;;;;;;;21.52;35.18;101916.34;4961257;28;20086;-79
2022/07/19 05:15:31;;;;;;;7.70;5.15;;;;;;;22.31;34.40;101918.72;4979032;28;20038;-80
2022/07/19 05:17:57;;;;;;;10.02;5.10;;;;;;;22.89;33.00;101919.69;4965422;28;20047;-79
2022/07/19 05:20:22;;;;;;;11.05;5.97;;;;;;;23.07;32.42;101913.91;4982796;28;20728;-75
2022/07/19 05:22:49;;;;;;;8.30;4.82;;;;;;;23.21;32.43;101919.03;4977913;28;20055;-80
2022/07/19 05:25:16;;;;;;;8.20;5.07;;;;;;;23.73;31.71;101920.28;4977515;28;20103;-81
2022/07/19 05:27:43;;;;;;;9.48;5.22;;;;;;;24.06;30.42;101926.56;4981500;28;20035;-80
2022/07/19 05:30:11;;;;;;;7.03;4.13;;;;;;;24.09;30.38;101920.97;4966732;28;20031;-80
2022/07/19 05:32:38;;;;;;;9.45;5.43;;;;;;;24.33;30.77;101927.97;4955763;28;20638;-78
2022/07/19 05:35:04;;;;;;;6.75;5.00;;;;;;;24.54;30.41;101918.16;4961446;28;20189;-80
2022/07/19 05:37:30;;;;;;;8.15;4.80;;;;;;;24.85;29.58;101923.59;4977227;28;20039;-80
2022/07/19 05:39:56;;;;;;;9.10;4.95;;;;;;;25.30;29.19;101911.78;4978444;28;20061;-79
2022/07/19 05:42:21;;;;;;;8.88;4.97;;;;;;;25.61;28.70;101915.31;4961346;28;20038;-82
2022/07/19 05:44:47;;;;;;;8.20;5.28;;;;;;;25.77;28.30;101928.19;4977789;28;20512;-80
2022/07/19 05:47:12;;;;;;;10.70;5.20;;;;;;;26.37;27.06;101917.47;4980743;28;20073;-77
2022/07/19 05:49:38;;;;;;;6.97;4.50;;;;;;;27.04;26.53;101919.25;4964475;28;20584;-78
2022/07/19 05:52:04;;;;;;;8.10;4.95;;;;;;;26.81;26.79;101918.75;4980814;28;20052;-78
2022/07/19 05:54:29;;;;;;;7.82;5.38;;;;;;;26.44;26.44;101918.59;4960634;28;20462;-80
2022/07/19 05:56:55;;;;;;;7.90;5.07;;;;;;;26.76;26.22;101917.47;4974380;28;20039;-79
2022/07/19 05:59:22;;;;;;;7.28;3.95;;;;;;;27.63;26.02;101921.75;4975149;28;20535;-81
2022/07/19 06:01:50;;;;;;;7.78;4.88;;;;;;;27.69;25.89;101915.78;4973763;28;20182;-80
2022/07/19 06:04:16;;;;;;;5.93;4.18;;;;;;;27.55;25.56;101913.59;4960056;28;20037;-80
2022/07/19 06:06:42;;;;;;;7.97;4.40;;;;;;;27.79;24.50;101921.97;4963774;28;20051;-80
2022/07/19 06:09:11;;;;;;;7.07;4.28;;;;;;;28.04;25.54;101919.53;4965776;28;20035;-76
2022/07/19 06:11:39;;;;;;;8.90;4.30;;;;;;;28.74;24.28;101922.41;4979134;28;20038;-81
2022/07/19 06:14:07;;;;;;;11.52;4.60;;;;;;;29.14;24.23;101911.06;4980385;28;20109;-78
2022/07/19 06:16:32;;;;;;;8.93;4.13;;;;;;;29.11;24.02;101913.22;4980216;28;20113;-79
2022/07/19 06:18:58;;;;;;;4.97;3.72;;;;;;;29.44;23.73;101919.66;4976140;28;20042;-80
2022/07/19 06:21:24;;;;;;;6.75;3.92;;;;;;;30.07;22.47;101914.81;4976637;28;20404;-79
2022/07/19 06:23:50;;;;;;;7.25;3.67;;;;;;;30.83;22.24;101910.97;4975742;28;20129;-77
2022/07/19 06:26:16;;;;;;;5.88;3.50;;;;;;;31.36;21.54;101912.19;4966405;28;20034;-80
2022/07/19 06:28:42;;;;;;;6.60;3.70;;;;;;;31.15;21.29;101920.88;4981008;28;20038;-79
2022/07/19 06:31:11;;;;;;;5.55;3.58;;;;;;;30.64;21.90;101909.47;4981229;28;20033;-80
2022/07/19 06:33:41;;;;;;;6.28;4.68;;;;;;;31.05;21.79;101914.84;4981111;28;20065;-79
2022/07/19 06:36:07;;;;;;;10.68;3.90;;;;;;;31.81;20.31;101915.22;4978528;28;20030;-77
2022/07/19 06:38:33;;;;;;;6.85;3.08;;;;;;;32.26;21.04;101915.44;4979534;28;20035;-78
2022/07/19 06:40:58;;;;;;;7.30;2.90;;;;;;;32.40;20.66;101915.50;4963875;28;20034;-80
2022/07/19 06:43:24;;;;;;;7.20;3.22;;;;;;;32.86;20.33;101920.03;4988530;28;20145;-79
2022/07/19 06:45:49;;;;;;;6.10;3.50;;;;;;;32.57;20.74;101916.22;4978044;28;20034;-78
2022/07/19 06:48:15;;;;;;;5.82;3.38;;;;;;;33.00;19.71;101919.16;4970497;28;20615;-78
2022/07/19 06:50:40;;;;;;;7.63;3.17;;;;;;;32.97;18.75;101922.25;4975720;28;20038;-79
2022/07/19 06:53:06;;;;;;;4.63;3.38;;;;;;;32.91;19.37;101922.16;4975281;28;20046;-78
2022/07/19 06:55:31;;;;;;;4.68;2.92;;;;;;;33.43;18.65;101911.22;4976449;28;22272;-78
2022/07/19 06:57:57;;;;;;;4.22;3.83;;;;;;;33.58;18.84;101903.06;4980422;28;20086;-77
2022/07/19 07:00:22;;;;;;;3.67;2.42;;;;;;;33.84;18.63;101918.00;4980716;28;20030;-77
2022/07/19 07:02:48;;;;;;;6.40;2.65;;;;;;;34.27;18.56;101909.88;4973404;28;20042;-78
2022/07/19 07:05:14;;;;;;;4.68;3.42;;;;;;;34.26;18.17;101911.75;4976402;28;20100;-79
2022/07/19 07:07:41;;;;;;;4.90;2.90;;;;;;;34.73;18.13;101901.25;4965454;28;20038;-78
2022/07/19 07:10:08;;;;;;;5.15;2.88;;;;;;;34.45;18.32;101907.53;4983123;28;20130;-78
2022/07/19 07:12:34;;;;;;;2.90;2.60;;;;;;;34.40;17.95;101904.56;4979946;28;20042;-77
2022/07/19 07:14:59;;;;;;;4.75;2.97;;;;;;;34.10;18.19;101900.28;4975350;28;20034;-79
2022/07/19 07:17:25;;;;;;;10.45;3.08;;;;;;;33.96;18.22;101900.16;4981570;28;20060;-78
2022/07/19 07:19:50;;;;;;;3.58;2.60;;;;;;;34.47;17.75;101896.47;4979077;28;20057;-78
2022/07/19 07:22:16;;;;;;;7.47;2.95;;;;;;;34.33;17.78;101892.81;4963722;28;20043;-79
2022/07/19 07:24:42;;;;;;;4.50;2.55;;;;;;;35.56;17.03;101889.59;4977874;28;20470;-77
2022/07/19 07:27:07;;;;;;;4.05;2.88;;;;;;;35.26;16.84;101884.44;4964580;28;20049;-80
2022/07/19 07:29:33;;;;;;;8.20;2.92;;;;;;;34.98;17.24;101887.28;4964441;28;20087;-79
2022/07/19 07:31:58;;;;;;;4.93;2.80;;;;;;;34.80;17.38;101888.59;4972332;28;20064;-79
2022/07/19 07:34:24;;;;;;;4.88;2.78;;;;;;;35.12;17.46;101889.00;4973401;28;20034;-77
2022/07/19 07:36:50;;;;;;;6.70;3.15;;;;;;;35.34;16.99;101892.44;4978567;28;20444;-78
2022/07/19 07:39:15;;;;;;;3.92;2.40;;;;;;;36.25;15.94;101886.63;4963866;28;20061;-79
2022/07/19 07:41:41;;;;;;;3.90;2.30;;;;;;;36.09;16.15;101879.69;4980486;28;20038;-78
2022/07/19 07:44:06;;;;;;;4.38;2.22;;;;;;;35.86;16.65;101884.69;4982388;28;20034;-79
2022/07/19 07:46:32;;;;;;;4.43;3.00;;;;;;;36.66;16.00;101882.00;4979554;28;20037;-78
2022/07/19 07:48:58;;;;;;;3.95;2.53;;;;;;;37.00;15.94;101880.00;4974854;28;20690;-78
2022/07/19 07:51:24;;;;;;;6.00;2.42;;;;;;;36.83;16.27;101880.50;4982975;28;20475;-77
2022/07/19 07:53:49;;;;;;;3.45;2.53;;;;;;;36.72;16.04;101873.81;4960233;28;20054;-78
2022/07/19 07:56:15;;;;;;;4.40;2.22;;;;;;;37.03;16.27;101871.41;4960675;28;20070;-80
2022/07/19 07:58:41;;;;;;;7.25;2.47;;;;;;;36.06;16.72;101874.66;4980356;28;20054;-77
2022/07/19 08:01:06;;;;;;;3.30;2.35;;;;;;;36.41;16.25;101876.34;4966516;28;20035;-78
2022/07/19 08:03:32;;;;;;;3.60;2.75;;;;;;;36.10;16.60;101875.06;4981322;28;20075;-79
2022/07/19 08:05:58;;;;;;;2.45;1.98;;;;;;;37.47;16.02;101869.78;4978693;28;20042;-79
2022/07/19 08:08:26;;;;;;;3.70;2.10;;;;;;;37.58;15.51;101860.91;4991943;28;20046;-80
2022/07/19 08:10:56;;;;;;;6.05;2.08;;;;;;;38.12;15.35;101867.63;4960482;28;20042;-79
2022/07/19 08:13:22;;;;;;;4.18;2.05;;;;;;;37.37;16.12;101864.78;4976894;28;20593;-84
2022/07/19 08:15:48;;;;;;;4.15;2.22;;;;;;;39.29;15.37;101866.84;4979981;28;20054;-79
2022/07/19 08:18:14;;;;;;;2.95;1.85;;;;;;;39.13;14.03;101862.00;4978494;28;20254;-79
2022/07/19 08:20:40;;;;;;;3.03;2.03;;;;;;;40.06;13.17;101860.63;4978021;28;20204;-78
2022/07/19 08:23:06;;;;;;;3.25;2.13;;;;;;;38.23;14.72;101859.81;4967171;28;20783;-78
2022/07/19 08:25:33;;;;;;;3.78;2.53;;;;;;;38.43;14.52;101854.16;4984057;28;20045;-77
2022/07/19 08:27:59;;;;;;;3.83;1.73;;;;;;;37.94;15.40;101853.94;4975858;28;20568;-76
2022/07/19 08:30:24;;;;;;;4.30;2.00;;;;;;;38.45;13.90;101861.06;4978745;28;20077;-77
2022/07/19 08:32:50;;;;;;;5.85;2.08;;;;;;;37.81;15.36;101859.47;4981228;28;20050;-76
2022/07/19 08:35:16;;;;;;;2.05;1.73;;;;;;;38.41;14.20;101859.84;4982427;28;20122;-77
2022/07/19 08:37:41;;;;;;;2.33;1.42;;;;;;;38.64;14.63;101864.69;4961701;28;20123;-79
2022/07/19 08:40:07;;;;;;;3.50;1.85;;;;;;;38.68;15.52;101860.41;4980687;28;20041;-78
2022/07/19 08:42:33;;;;;;;6.25;2.05;;;;;;;39.26;14.84;101858.25;4976512;28;20138;-76
2022/07/19 08:45:06;;;;;;;4.38;1.40;;;;;;;38.43;13.34;101851.44;4987291;28;20117;-77
2022/07/19 08:47:32;;;;;;;4.07;2.03;;;;;;;39.32;13.46;101855.44;4975840;28;20042;-78
2022/07/19 08:49:59;;;;;;;1.63;1.50;;;;;;;39.48;13.08;101853.13;4978458;28;20467;-78
2022/07/19 08:52:25;;;;;;;2.85;2.03;;;;;;;38.76;13.59;101848.38;4975270;28;20050;-76
2022/07/19 08:54:51;;;;;;;4.10;2.00;;;;;;;38.28;13.87;101849.06;4979286;28;20447;-77
2022/07/19 09:00:03;;;;;;;4.38;1.95;;;;;;;38.55;13.40;101849.59;4978827;28;20108;-74
2022/07/19 09:02:28;;;;;;;6.32;1.98;;;;;;;38.82;13.71;101849.34;4965728;28;20909;-77
2022/07/19 09:05:09;;;;;;;2.88;1.80;;;;;;;38.76;13.84;101856.56;4977555;28;20038;-77
2022/07/19 09:07:36;;;;;;;2.30;1.63;;;;;;;37.45;14.04;101858.25;4958896;28;20046;-75
2022/07/19 09:10:21;;;;;;;3.08;1.52;;;;;;;37.53;14.81;101852.53;4975221;28;20058;-78
2022/07/19 09:13:02;;;;;;;11.80;2.13;;;;;;;36.60;14.85;101852.84;4974882;28;20092;-75
2022/07/19 09:15:51;;;;;;;3.42;1.50;;;;;;;36.99;14.57;101845.63;4975152;28;20030;-75
2022/07/19 09:18:20;;;;;;;4.50;1.63;;;;;;;37.14;15.27;101848.94;4980222;28;20058;-77
2022/07/19 09:20:48;;;;;;;2.15;1.77;;;;;;;37.85;15.09;101856.09;4974720;28;20046;-77
2022/07/19 09:23:15;;;;;;;3.63;1.65;;;;;;;38.62;14.04;101846.84;4974693;28;20137;-77
2022/07/19 09:25:48;;;;;;;2.35;1.23;;;;;;;38.56;13.57;101846.66;4977789;28;20804;-75
2022/07/19 09:28:15;;;;;;;5.57;1.73;;;;;;;38.04;13.98;101843.38;4955556;28;20070;-75
2022/07/19 09:30:46;;;;;;;4.03;1.27;;;;;;;37.71;13.95;101851.78;4961710;28;20221;-79
2022/07/19 09:33:15;;;;;;;2.60;1.25;;;;;;;36.45;14.24;101851.22;4959900;28;20043;-76
2022/07/19 09:35:43;;;;;;;4.15;1.48;;;;;;;35.27;15.25;101854.38;4989285;28;20046;-77
2022/07/19 09:38:19;;;;;;;1.85;1.23;;;;;;;35.73;15.24;101858.25;4958675;28;20053;-77
2022/07/19 09:40:47;;;;;;;2.70;1.33;;;;;;;36.03;14.35;101845.16;4976578;28;20043;-76
2022/07/19 09:43:13;;;;;;;3.65;1.13;;;;;;;35.84;15.10;101848.69;4974612;28;21533;-79
2022/07/19 09:45:38;;;;;;;4.35;1.17;;;;;;;36.16;15.25;101840.75;4989954;28;20242;-79
2022/07/19 09:48:04;;;;;;;3.17;1.30;;;;;;;36.12;15.26;101843.88;4989490;28;20090;-77
2022/07/19 09:50:30;;;;;;;1.63;0.88;;;;;;;34.94;16.04;101834.34;4965812;28;20035;-77
2022/07/19 09:53:02;;;;;;;2.10;0.82;;;;;;;34.02;15.83;101831.59;4976662;28;20649;-76
2022/07/19 09:55:28;;;;;;;7.40;1.23;;;;;;;33.14;17.06;101829.97;4965218;28;20030;-75
2022/07/19 09:57:56;;;;;;;2.78;1.42;;;;;;;32.51;17.74;101840.34;4978314;28;20057;-77
2022/07/19 10:00:24;;;;;;;3.40;1.60;;;;;;;33.60;16.91;101830.56;4975049;28;20053;-77
2022/07/19 10:03:01;;;;;;;4.85;1.35;;;;;;;33.81;17.86;101826.19;4974850;28;20050;-78
2022/07/19 10:05:28;;;;;;;5.95;1.00;;;;;;;33.96;18.22;101824.25;4976651;28;20060;-78
2022/07/19 10:07:55;;;;;;;3.83;1.15;;;;;;;34.41;16.13;101819.41;4974771;28;20045;-76
2022/07/19 10:10:22;;;;;;;2.05;0.82;;;;;;;34.16;16.57;101813.59;4963211;28;20030;-77
2022/07/19 10:12:50;;;;;;;2.03;1.20;;;;;;;33.41;16.25;101825.75;4978468;28;20124;-76
2022/07/19 10:15:17;;;;;;;2.17;1.02;;;;;;;32.73;16.75;101827.75;4959841;28;20116;-78
2022/07/19 10:18:05;;;;;;;4.97;1.05;;;;;;;33.31;17.61;101819.81;4982786;28;20050;-77
2022/07/19 10:20:32;;;;;;;3.45;1.20;;;;;;;33.52;16.68;101822.53;4992932;28;20311;-77
2022/07/19 10:23:02;;;;;;;2.33;1.63;;;;;;;34.02;16.32;101820.75;4974974;28;20452;-78
2022/07/19 10:25:39;;;;;;;3.45;0.95;;;;;;;34.42;16.36;101815.66;4975444;28;20149;-76
2022/07/19 10:28:04;;;;;;;2.60;1.10;;;;;;;34.17;16.52;101825.28;4995086;28;20038;-77
2022/07/19 10:30:39;;;;;;;6.10;1.05;;;;;;;34.62;16.92;101823.09;4987018;28;20512;-75
2022/07/19 10:33:25;;;;;;;3.20;1.08;;;;;;;34.89;15.08;101814.06;4981899;28;20427;-76
2022/07/19 10:35:51;;;;;;;3.30;0.90;;;;;;;34.42;15.54;101807.53;4992277;28;20030;-80
2022/07/19 10:38:16;;;;;;;5.25;1.00;;;;;;;34.57;16.21;101807.41;4975723;28;20042;-77
2022/07/19 10:40:46;;;;;;;2.70;1.27;;;;;;;35.07;16.01;101799.13;4978333;28;20186;-77
2022/07/19 10:43:16;;;;;;;6.80;1.77;;;;;;;33.08;17.22;101799.09;4965715;28;20046;-79
2022/07/19 10:46:03;;;;;;;4.20;1.60;;;;;;;34.81;16.18;101795.22;4982816;28;20050;-78
2022/07/19 10:48:35;;;;;;;2.60;1.10;;;;;;;35.29;17.27;101792.50;4952811;28;20401;-78
2022/07/19 10:51:00;;;;;;;3.53;1.13;;;;;;;35.71;15.90;101790.50;4983676;28;20117;-77
2022/07/19 10:53:41;;;;;;;6.55;1.25;;;;;;;35.13;15.53;101787.44;4966747;28;20157;-77
2022/07/19 10:56:24;;;;;;;3.53;1.08;;;;;;;34.74;17.37;101799.78;4962440;28;20058;-78
2022/07/19 10:59:00;;;;;;;1.15;1.05;;;;;;;34.75;16.51;101790.59;4988700;28;20047;-78
2022/07/19 11:01:28;;;;;;;3.28;0.85;;;;;;;34.43;16.39;101792.06;4980854;28;20138;-77
2022/07/19 11:04:14;;;;;;;4.63;1.38;;;;;;;34.32;16.04;101796.16;4980906;28;20054;-77
2022/07/19 11:06:40;;;;;;;4.43;1.42;;;;;;;34.62;16.84;101785.09;4975148;28;20042;-79
2022/07/19 11:09:05;;;;;;;3.22;1.38;;;;;;;35.42;16.46;101785.44;4977748;28;20027;-76
2022/07/19 11:11:31;;;;;;;4.88;1.73;;;;;;;35.58;16.40;101789.63;4978304;28;20039;-76
2022/07/19 11:14:00;;;;;;;4.15;1.15;;;;;;;34.51;16.06;101774.78;4983049;28;20038;-76
2022/07/19 11:16:28;;;;;;;5.25;1.25;;;;;;;34.45;16.19;101782.69;4970711;28;20670;-77
2022/07/19 11:19:07;;;;;;;2.50;1.38;;;;;;;35.15;16.11;101776.38;4975786;28;20536;-76
2022/07/19 11:21:36;;;;;;;1.42;1.30;;;;;;;34.74;15.93;101775.34;4970775;28;20038;-77
2022/07/19 11:24:03;;;;;;;2.10;0.98;;;;;;;34.92;16.79;101772.09;4984842;28;20053;-76
2022/07/19 11:26:36;;;;;;;1.45;1.00;;;;;;;35.24;16.17;101762.38;4976547;28;20033;-78
2022/07/19 11:29:02;;;;;;;2.78;1.25;;;;;;;35.98;16.34;101767.94;4963467;28;20046;-76